createdAt,value
2018-03-30T00:00:53.821Z,0.00
2018-03-30T00:01:53.730Z,0.00
2018-03-30T00:02:53.648Z,0.00
2018-03-30T00:03:53.570Z,0.00
2018-03-30T00:04:53.488Z,0.00
2018-03-30T00:05:53.404Z,0.00
2018-03-30T00:06:53.324Z,0.00
2018-03-30T00:07:53.254Z,0.00
2018-03-30T00:08:53.160Z,0.00
2018-03-30T00:09:53.081Z,0.00
2018-03-30T00:10:52.998Z,0.00
2018-03-30T00:11:52.918Z,0.00
2018-03-30T00:12:52.836Z,0.00
2018-03-30T00:13:52.749Z,0.00
2018-03-30T00:14:52.673Z,0.00
2018-03-30T00:15:52.594Z,0.00
2018-03-30T00:16:52.518Z,0.00
2018-03-30T00:17:52.435Z,0.00
2018-03-30T00:18:52.346Z,0.00
2018-03-30T00:19:52.265Z,0.00
2018-03-30T00:20:52.183Z,0.00
2018-03-30T00:21:52.103Z,0.00
2018-03-30T00:22:52.016Z,0.00
2018-03-30T00:23:51.938Z,0.00
2018-03-30T00:24:51.878Z,0.00
2018-03-30T00:25:51.775Z,0.00
2018-03-30T00:26:51.696Z,0.00
2018-03-30T00:27:51.622Z,0.00
2018-03-30T00:28:51.523Z,0.00
2018-03-30T00:29:51.447Z,0.00
2018-03-30T00:30:51.365Z,0.00
2018-03-30T00:31:51.282Z,0.00
2018-03-30T00:32:51.199Z,0.00
2018-03-30T00:33:51.116Z,0.00
2018-03-30T00:34:51.035Z,0.00
2018-03-30T00:35:50.951Z,0.00
2018-03-30T00:36:50.871Z,0.00
2018-03-30T00:37:50.790Z,0.00
2018-03-30T00:38:50.708Z,0.00
2018-03-30T00:39:50.625Z,0.00
2018-03-30T00:40:50.540Z,0.00
2018-03-30T00:41:50.460Z,0.00
2018-03-30T00:42:50.383Z,0.00
2018-03-30T00:43:50.302Z,0.00
2018-03-30T00:44:50.222Z,0.00
2018-03-30T00:45:50.139Z,0.00
2018-03-30T00:46:50.057Z,0.00
2018-03-30T00:47:49.975Z,0.00
2018-03-30T00:48:49.886Z,0.00
2018-03-30T00:49:49.810Z,0.00
2018-03-30T00:50:49.721Z,0.00
2018-03-30T00:51:49.644Z,0.00
2018-03-30T00:52:49.558Z,0.00
2018-03-30T00:53:49.480Z,0.00
2018-03-30T00:54:49.398Z,0.00
2018-03-30T00:55:49.346Z,0.00
2018-03-30T00:56:49.237Z,0.00
2018-03-30T00:57:49.148Z,0.00
2018-03-30T00:58:49.069Z,0.00
2018-03-30T00:59:48.994Z,0.00
2018-03-30T01:00:48.904Z,0.00
2018-03-30T01:01:48.819Z,0.00
2018-03-30T01:02:48.743Z,0.00
2018-03-30T01:03:48.658Z,0.00
2018-03-30T01:04:48.579Z,0.00
2018-03-30T01:05:48.494Z,0.00
2018-03-30T01:06:48.420Z,0.00
2018-03-30T01:07:48.329Z,0.00
2018-03-30T01:08:48.251Z,0.00
2018-03-30T01:09:48.168Z,0.00
2018-03-30T01:10:48.085Z,0.00
2018-03-30T01:11:48.000Z,0.00
2018-03-30T01:12:47.921Z,0.00
2018-03-30T01:13:47.844Z,0.00
2018-03-30T01:14:47.756Z,0.00
2018-03-30T01:15:47.692Z,0.00
2018-03-30T01:16:47.591Z,0.00
2018-03-30T01:17:47.508Z,0.00
2018-03-30T01:18:47.429Z,0.00
2018-03-30T01:19:47.348Z,0.00
2018-03-30T01:20:47.280Z,0.00
2018-03-30T01:21:47.183Z,0.00
2018-03-30T01:22:47.103Z,0.00
2018-03-30T01:23:47.017Z,0.00
2018-03-30T01:24:47.707Z,0.00
2018-03-30T01:25:46.862Z,0.00
2018-03-30T01:26:46.799Z,0.00
2018-03-30T01:27:46.688Z,0.00
2018-03-30T01:28:46.611Z,0.00
2018-03-30T01:29:46.525Z,0.00
2018-03-30T01:30:46.443Z,0.00
2018-03-30T01:31:46.364Z,0.00
2018-03-30T01:32:46.281Z,0.00
2018-03-30T01:33:46.201Z,0.00
2018-03-30T01:34:46.132Z,0.00
2018-03-30T01:35:46.034Z,0.00
2018-03-30T01:36:45.949Z,0.00
2018-03-30T01:37:45.866Z,0.00
2018-03-30T01:38:45.790Z,0.00
2018-03-30T01:39:45.743Z,0.00
2018-03-30T01:40:45.625Z,0.00
2018-03-30T01:41:45.544Z,0.00
2018-03-30T01:42:45.456Z,0.00
2018-03-30T01:43:45.392Z,0.00
2018-03-30T01:44:45.296Z,0.00
2018-03-30T01:45:45.210Z,0.00
2018-03-30T01:46:45.128Z,0.00
2018-03-30T01:47:45.045Z,0.00
2018-03-30T01:48:44.964Z,0.00
2018-03-30T01:49:44.885Z,0.00
2018-03-30T01:50:44.811Z,0.00
2018-03-30T01:51:44.722Z,0.00
2018-03-30T01:52:44.635Z,0.00
2018-03-30T01:53:44.551Z,0.00
2018-03-30T01:54:44.474Z,0.00
2018-03-30T01:55:44.399Z,0.00
2018-03-30T01:56:44.304Z,0.00
2018-03-30T01:57:44.221Z,0.00
2018-03-30T01:58:44.142Z,0.00
2018-03-30T01:59:44.056Z,0.00
2018-03-30T02:00:43.976Z,0.00
2018-03-30T02:01:43.893Z,0.00
2018-03-30T02:02:43.811Z,0.00
2018-03-30T02:03:43.733Z,0.00
2018-03-30T02:04:43.645Z,0.00
2018-03-30T02:05:43.567Z,0.00
2018-03-30T02:06:43.480Z,0.00
2018-03-30T02:07:43.404Z,0.00
2018-03-30T02:08:43.315Z,0.00
2018-03-30T02:09:43.241Z,0.00
2018-03-30T02:10:43.155Z,0.00
2018-03-30T02:11:43.069Z,0.00
2018-03-30T02:12:42.986Z,0.00
2018-03-30T02:13:42.926Z,0.00
2018-03-30T02:14:42.827Z,0.00
2018-03-30T02:15:42.741Z,0.00
2018-03-30T02:16:42.656Z,0.00
2018-03-30T02:17:42.571Z,0.00
2018-03-30T02:18:42.489Z,0.00
2018-03-30T02:19:42.410Z,0.00
2018-03-30T02:20:42.321Z,0.00
2018-03-30T02:21:42.252Z,0.00
2018-03-30T02:22:42.157Z,0.00
2018-03-30T02:23:42.079Z,0.00
2018-03-30T02:24:41.992Z,0.00
2018-03-30T02:25:41.909Z,0.00
2018-03-30T02:26:41.834Z,0.00
2018-03-30T02:27:41.773Z,0.00
2018-03-30T02:28:41.664Z,0.00
2018-03-30T02:29:41.584Z,0.00
2018-03-30T02:30:41.498Z,0.00
2018-03-30T02:31:41.413Z,0.00
2018-03-30T02:32:41.331Z,0.00
2018-03-30T02:33:41.246Z,0.00
2018-03-30T02:34:41.172Z,0.00
2018-03-30T02:35:41.083Z,0.00
2018-03-30T02:36:41.004Z,0.00
2018-03-30T02:37:40.941Z,0.00
2018-03-30T02:38:40.837Z,0.00
2018-03-30T02:39:40.752Z,0.00
2018-03-30T02:40:40.669Z,0.00
2018-03-30T02:41:40.585Z,0.00
2018-03-30T02:42:40.517Z,0.00
2018-03-30T02:43:40.422Z,0.00
2018-03-30T02:44:40.336Z,0.00
2018-03-30T02:45:40.253Z,0.00
2018-03-30T02:46:40.188Z,0.00
2018-03-30T02:47:40.086Z,0.00
2018-03-30T02:48:40.013Z,0.00
2018-03-30T02:49:39.923Z,0.00
2018-03-30T02:50:39.838Z,0.00
2018-03-30T02:51:39.758Z,0.00
2018-03-30T02:52:39.684Z,0.00
2018-03-30T02:53:39.592Z,0.00
2018-03-30T02:54:39.512Z,0.00
2018-03-30T02:55:39.426Z,0.00
2018-03-30T02:56:39.343Z,0.00
2018-03-30T02:57:39.294Z,0.00
2018-03-30T02:58:39.178Z,0.00
2018-03-30T02:59:39.094Z,0.00
2018-03-30T03:00:39.010Z,0.00
2018-03-30T03:01:38.928Z,0.00
2018-03-30T03:02:38.844Z,0.00
2018-03-30T03:03:38.766Z,0.00
2018-03-30T03:04:38.683Z,0.00
2018-03-30T03:05:38.597Z,0.00
2018-03-30T03:06:38.516Z,0.00
2018-03-30T03:07:38.437Z,0.00
2018-03-30T03:08:38.348Z,0.00
2018-03-30T03:09:38.262Z,0.00
2018-03-30T03:10:38.184Z,0.00
2018-03-30T03:11:38.100Z,0.00
2018-03-30T03:12:38.015Z,0.00
2018-03-30T03:13:37.937Z,0.00
2018-03-30T03:14:37.869Z,0.00
2018-03-30T03:15:37.766Z,0.00
2018-03-30T03:16:37.688Z,0.00
2018-03-30T03:17:37.602Z,0.00
2018-03-30T03:18:37.521Z,0.00
2018-03-30T03:19:37.439Z,0.00
2018-03-30T03:20:37.358Z,0.00
2018-03-30T03:21:37.272Z,0.00
2018-03-30T03:22:37.191Z,0.00
2018-03-30T03:23:37.113Z,0.00
2018-03-30T03:24:37.028Z,0.00
2018-03-30T03:25:36.943Z,0.00
2018-03-30T03:26:36.882Z,0.00
2018-03-30T03:27:36.781Z,0.00
2018-03-30T03:28:36.693Z,0.00
2018-03-30T03:29:36.611Z,0.00
2018-03-30T03:30:36.533Z,0.00
2018-03-30T03:31:36.451Z,0.00
2018-03-30T03:32:36.361Z,0.00
2018-03-30T03:33:36.283Z,0.00
2018-03-30T03:34:36.194Z,0.00
2018-03-30T03:35:36.115Z,0.00
2018-03-30T03:36:36.035Z,0.00
2018-03-30T03:37:35.952Z,0.00
2018-03-30T03:38:35.862Z,0.00
2018-03-30T03:39:35.787Z,0.00
2018-03-30T03:40:35.701Z,0.00
2018-03-30T03:41:35.618Z,0.00
2018-03-30T03:42:35.531Z,0.00
2018-03-30T03:43:35.452Z,0.00
2018-03-30T03:44:35.368Z,0.00
2018-03-30T03:45:35.379Z,0.00
2018-03-30T03:46:35.203Z,0.00
2018-03-30T03:47:35.116Z,0.00
2018-03-30T03:48:35.037Z,0.00
2018-03-30T03:49:34.952Z,0.00
2018-03-30T03:50:34.876Z,0.00
2018-03-30T03:51:34.790Z,0.00
2018-03-30T03:52:34.704Z,0.00
2018-03-30T03:53:34.620Z,0.00
2018-03-30T03:54:34.543Z,0.00
2018-03-30T03:55:34.464Z,0.00
2018-03-30T03:56:34.373Z,0.00
2018-03-30T03:57:34.288Z,0.00
2018-03-30T03:58:34.203Z,0.00
2018-03-30T03:59:34.132Z,0.00
2018-03-30T04:00:34.035Z,0.00
2018-03-30T04:01:33.960Z,0.00
2018-03-30T04:02:33.874Z,0.00
2018-03-30T04:03:33.790Z,0.00
2018-03-30T04:04:33.731Z,0.00
2018-03-30T04:05:33.626Z,0.00
2018-03-30T04:06:33.550Z,0.00
2018-03-30T04:07:33.461Z,0.00
2018-03-30T04:08:33.377Z,0.00
2018-03-30T04:09:33.334Z,0.00
2018-03-30T04:10:33.214Z,0.00
2018-03-30T04:11:33.125Z,0.00
2018-03-30T04:12:33.047Z,0.00
2018-03-30T04:13:32.962Z,0.00
2018-03-30T04:14:32.876Z,0.00
2018-03-30T04:15:32.794Z,0.00
2018-03-30T04:16:32.718Z,0.00
2018-03-30T04:17:32.625Z,0.00
2018-03-30T04:18:32.546Z,0.00
2018-03-30T04:19:33.224Z,0.00
2018-03-30T04:20:32.386Z,0.00
2018-03-30T04:21:32.294Z,0.00
2018-03-30T04:22:32.213Z,0.00
2018-03-30T04:23:32.133Z,0.00
2018-03-30T04:24:32.053Z,0.00
2018-03-30T04:25:31.970Z,0.00
2018-03-30T04:26:31.882Z,0.00
2018-03-30T04:27:31.799Z,0.00
2018-03-30T04:28:31.746Z,0.00
2018-03-30T04:29:31.632Z,4.00
2018-03-30T04:30:31.550Z,4.00
2018-03-30T04:31:31.465Z,0.00
2018-03-30T04:32:31.382Z,4.00
2018-03-30T04:33:31.296Z,4.00
2018-03-30T04:34:31.224Z,4.00
2018-03-30T04:35:31.155Z,4.00
2018-03-30T04:36:31.049Z,8.00
2018-03-30T04:37:30.968Z,8.00
2018-03-30T04:38:30.885Z,8.00
2018-03-30T04:39:30.801Z,12.00
2018-03-30T04:40:30.743Z,12.00
2018-03-30T04:41:30.633Z,16.00
2018-03-30T04:42:30.653Z,16.00
2018-03-30T04:43:30.468Z,20.00
2018-03-30T04:44:30.425Z,24.00
2018-03-30T04:45:30.308Z,28.00
2018-03-30T04:46:30.223Z,32.00
2018-03-30T04:47:30.138Z,40.00
2018-03-30T04:48:30.064Z,44.00
2018-03-30T04:49:29.993Z,48.00
2018-03-30T04:50:29.885Z,52.00
2018-03-30T04:51:29.805Z,60.00
2018-03-30T04:52:29.716Z,72.00
2018-03-30T04:53:29.633Z,76.00
2018-03-30T04:54:29.554Z,84.00
2018-03-30T04:55:29.473Z,92.00
2018-03-30T04:56:29.382Z,100.00
2018-03-30T04:57:29.303Z,108.00
2018-03-30T04:58:29.217Z,120.00
2018-03-30T04:59:29.145Z,128.00
2018-03-30T05:00:29.060Z,140.00
2018-03-30T05:01:28.969Z,148.00
2018-03-30T05:02:28.887Z,156.00
2018-03-30T05:03:28.804Z,172.00
2018-03-30T05:04:28.722Z,180.00
2018-03-30T05:05:28.645Z,192.00
2018-03-30T05:06:28.550Z,204.00
2018-03-30T05:07:28.474Z,212.00
2018-03-30T05:08:28.386Z,220.00
2018-03-30T05:09:28.307Z,236.00
2018-03-30T05:10:28.226Z,244.00
2018-03-30T05:11:28.138Z,256.00
2018-03-30T05:12:28.055Z,264.00
2018-03-30T05:13:27.976Z,272.00
2018-03-30T05:14:27.894Z,284.00
2018-03-30T05:15:27.802Z,296.00
2018-03-30T05:16:27.724Z,304.00
2018-03-30T05:17:27.642Z,316.00
2018-03-30T05:18:27.554Z,324.00
2018-03-30T05:19:27.475Z,336.00
2018-03-30T05:20:27.392Z,348.00
2018-03-30T05:21:27.304Z,356.00
2018-03-30T05:22:27.231Z,368.00
2018-03-30T05:23:27.146Z,380.00
2018-03-30T05:24:27.058Z,392.00
2018-03-30T05:25:26.978Z,400.00
2018-03-30T05:26:26.893Z,412.00
2018-03-30T05:27:26.807Z,420.00
2018-03-30T05:28:26.724Z,436.00
2018-03-30T05:29:26.644Z,448.00
2018-03-30T05:30:26.558Z,460.00
2018-03-30T05:31:26.525Z,468.00
2018-03-30T05:32:26.393Z,484.00
2018-03-30T05:33:26.306Z,492.00
2018-03-30T05:34:26.232Z,504.00
2018-03-30T05:35:26.147Z,516.00
2018-03-30T05:36:26.059Z,536.00
2018-03-30T05:37:25.980Z,552.00
2018-03-30T05:38:25.888Z,560.00
2018-03-30T05:39:25.812Z,576.00
2018-03-30T05:40:25.723Z,592.00
2018-03-30T05:41:25.643Z,608.00
2018-03-30T05:42:25.557Z,624.00
2018-03-30T05:43:25.496Z,636.00
2018-03-30T05:44:25.390Z,644.00
2018-03-30T05:45:25.323Z,664.00
2018-03-30T05:46:25.225Z,684.00
2018-03-30T05:47:25.159Z,700.00
2018-03-30T05:48:25.059Z,708.00
2018-03-30T05:49:24.978Z,724.00
2018-03-30T05:50:24.924Z,732.00
2018-03-30T05:51:24.810Z,748.00
2018-03-30T05:52:24.730Z,764.00
2018-03-30T05:53:24.647Z,784.00
2018-03-30T05:54:24.562Z,788.00
2018-03-30T05:55:24.482Z,804.00
2018-03-30T05:56:24.394Z,820.00
2018-03-30T05:57:24.308Z,828.00
2018-03-30T05:58:24.231Z,844.00
2018-03-30T05:59:24.145Z,876.00
2018-03-30T06:00:24.067Z,892.00
2018-03-30T06:01:23.990Z,924.00
2018-03-30T06:02:23.951Z,960.00
2018-03-30T06:03:23.812Z,980.00
2018-03-30T06:04:23.734Z,988.00
2018-03-30T06:05:23.757Z,996.00
2018-03-30T06:06:23.562Z,1000.00
2018-03-30T06:07:23.490Z,1016.00
2018-03-30T06:08:23.394Z,1040.00
2018-03-30T06:09:23.324Z,1048.00
2018-03-30T06:10:23.231Z,1048.00
2018-03-30T06:11:23.145Z,1052.00
2018-03-30T06:12:23.066Z,1036.00
2018-03-30T06:13:23.033Z,1012.00
2018-03-30T06:14:22.903Z,1020.00
2018-03-30T06:15:22.814Z,1024.00
2018-03-30T06:16:22.748Z,1012.00
2018-03-30T06:17:22.652Z,1004.00
2018-03-30T06:18:22.566Z,1004.00
2018-03-30T06:19:22.486Z,1004.00
2018-03-30T06:20:22.400Z,1000.00
2018-03-30T06:21:22.320Z,988.00
2018-03-30T06:22:22.235Z,988.00
2018-03-30T06:23:22.153Z,992.00
2018-03-30T06:24:22.069Z,996.00
2018-03-30T06:25:21.990Z,992.00
2018-03-30T06:26:21.913Z,1044.00
2018-03-30T06:27:21.822Z,1316.00
2018-03-30T06:28:21.735Z,1068.00
2018-03-30T06:29:21.665Z,1064.00
2018-03-30T06:30:21.569Z,1064.00
2018-03-30T06:31:21.560Z,1080.00
2018-03-30T06:32:21.428Z,1100.00
2018-03-30T06:33:21.326Z,1128.00
2018-03-30T06:34:21.244Z,1228.00
2018-03-30T06:35:21.229Z,1116.00
2018-03-30T06:36:21.072Z,1080.00
2018-03-30T06:37:20.994Z,1052.00
2018-03-30T06:38:20.911Z,1032.00
2018-03-30T06:39:20.835Z,1044.00
2018-03-30T06:40:20.761Z,1032.00
2018-03-30T06:41:20.664Z,1056.00
2018-03-30T06:42:20.576Z,1016.00
2018-03-30T06:43:20.498Z,1040.00
2018-03-30T06:44:20.410Z,1040.00
2018-03-30T06:45:20.327Z,1040.00
2018-03-30T06:46:20.243Z,1028.00
2018-03-30T06:47:20.162Z,1024.00
2018-03-30T06:48:20.078Z,1024.00
2018-03-30T06:49:20.005Z,1024.00
2018-03-30T06:50:19.918Z,1016.00
2018-03-30T06:51:19.832Z,1020.00
2018-03-30T06:52:19.749Z,1036.00
2018-03-30T06:53:19.668Z,1056.00
2018-03-30T06:54:19.582Z,1096.00
2018-03-30T06:55:19.500Z,1152.00
2018-03-30T06:56:19.415Z,1212.00
2018-03-30T06:57:19.339Z,1264.00
2018-03-30T06:58:19.250Z,1436.00
2018-03-30T06:59:19.186Z,1604.00
2018-03-30T07:00:19.086Z,1824.00
2018-03-30T07:01:19.002Z,1632.00
2018-03-30T07:02:18.925Z,1948.00
2018-03-30T07:03:18.883Z,1776.00
2018-03-30T07:04:18.761Z,2252.00
2018-03-30T07:05:18.691Z,1912.00
2018-03-30T07:06:18.589Z,2424.00
2018-03-30T07:07:18.583Z,2616.00
2018-03-30T07:08:18.428Z,2512.00
2018-03-30T07:09:18.348Z,2288.00
2018-03-30T07:10:18.267Z,2112.00
2018-03-30T07:11:18.185Z,2424.00
2018-03-30T07:12:18.094Z,2028.00
2018-03-30T07:13:18.034Z,2160.00
2018-03-30T07:14:17.932Z,1832.00
2018-03-30T07:15:17.846Z,1864.00
2018-03-30T07:16:17.766Z,1864.00
2018-03-30T07:17:17.682Z,2060.00
2018-03-30T07:18:17.618Z,2116.00
2018-03-30T07:19:17.518Z,2060.00
2018-03-30T07:20:17.443Z,2472.00
2018-03-30T07:21:17.363Z,2584.00
2018-03-30T07:22:17.274Z,2664.00
2018-03-30T07:23:17.187Z,2804.00
2018-03-30T07:24:17.107Z,2964.00
2018-03-30T07:25:17.044Z,3096.00
2018-03-30T07:26:16.941Z,3208.00
2018-03-30T07:27:16.856Z,3212.00
2018-03-30T07:28:16.794Z,3348.00
2018-03-30T07:29:16.695Z,3404.00
2018-03-30T07:30:16.609Z,3372.00
2018-03-30T07:31:16.528Z,3628.00
2018-03-30T07:32:16.444Z,3648.00
2018-03-30T07:33:16.384Z,3728.00
2018-03-30T07:34:16.286Z,3716.00
2018-03-30T07:35:16.203Z,3720.00
2018-03-30T07:36:16.119Z,3648.00
2018-03-30T07:37:16.050Z,3560.00
2018-03-30T07:38:15.955Z,3416.00
2018-03-30T07:39:15.875Z,3148.00
2018-03-30T07:40:15.799Z,2544.00
2018-03-30T07:41:15.710Z,2396.00
2018-03-30T07:42:15.637Z,2668.00
2018-03-30T07:43:15.549Z,2556.00
2018-03-30T07:44:15.470Z,2308.00
2018-03-30T07:45:15.387Z,2744.00
2018-03-30T07:46:15.306Z,2380.00
2018-03-30T07:47:15.229Z,2748.00
2018-03-30T07:48:15.141Z,2768.00
2018-03-30T07:49:15.063Z,2776.00
2018-03-30T07:50:14.983Z,2760.00
2018-03-30T07:51:14.900Z,2776.00
2018-03-30T07:52:14.815Z,2660.00
2018-03-30T07:53:14.737Z,2664.00
2018-03-30T07:54:14.661Z,2504.00
2018-03-30T07:55:14.575Z,2648.00
2018-03-30T07:56:14.491Z,2628.00
2018-03-30T07:57:14.435Z,2508.00
2018-03-30T07:58:14.329Z,2692.00
2018-03-30T07:59:14.246Z,2384.00
2018-03-30T08:00:14.166Z,2484.00
2018-03-30T08:01:14.086Z,2700.00
2018-03-30T08:02:14.007Z,2780.00
2018-03-30T08:03:13.933Z,2860.00
2018-03-30T08:04:13.854Z,2912.00
2018-03-30T08:05:13.776Z,2912.00
2018-03-30T08:06:13.682Z,2760.00
2018-03-30T08:07:13.599Z,2668.00
2018-03-30T08:08:13.517Z,3364.00
2018-03-30T08:09:13.439Z,3300.00
2018-03-30T08:10:13.358Z,3332.00
2018-03-30T08:11:13.294Z,3236.00
2018-03-30T08:12:13.194Z,3428.00
2018-03-30T08:13:13.114Z,3280.00
2018-03-30T08:14:13.032Z,3312.00
2018-03-30T08:15:12.953Z,3228.00
2018-03-30T08:16:12.872Z,2912.00
2018-03-30T08:17:12.795Z,2972.00
2018-03-30T08:18:12.713Z,3188.00
2018-03-30T08:19:12.644Z,3148.00
2018-03-30T08:20:12.558Z,2976.00
2018-03-30T08:21:12.465Z,3280.00
2018-03-30T08:22:12.385Z,3072.00
2018-03-30T08:23:12.309Z,3220.00
2018-03-30T08:24:12.232Z,3160.00
2018-03-30T08:25:12.144Z,3172.00
2018-03-30T08:26:12.096Z,3224.00
2018-03-30T08:27:11.987Z,2984.00
2018-03-30T08:28:11.903Z,3104.00
2018-03-30T08:29:11.820Z,3128.00
2018-03-30T08:30:11.744Z,3592.00
2018-03-30T08:31:11.661Z,3524.00
2018-03-30T08:32:11.593Z,3332.00
2018-03-30T08:33:11.500Z,3144.00
2018-03-30T08:34:11.429Z,3672.00
2018-03-30T08:35:11.338Z,3324.00
2018-03-30T08:36:11.259Z,3196.00
2018-03-30T08:37:11.178Z,3204.00
2018-03-30T08:38:11.098Z,3052.00
2018-03-30T08:39:11.017Z,3032.00
2018-03-30T08:40:10.945Z,2788.00
2018-03-30T08:41:10.858Z,2372.00
2018-03-30T08:42:10.776Z,2448.00
2018-03-30T08:43:10.695Z,2576.00
2018-03-30T08:44:10.621Z,2332.00
2018-03-30T08:45:10.551Z,2728.00
2018-03-30T08:46:10.458Z,2300.00
2018-03-30T08:47:10.382Z,2860.00
2018-03-30T08:48:10.296Z,2540.00
2018-03-30T08:49:10.223Z,2244.00
2018-03-30T08:50:10.135Z,2472.00
2018-03-30T08:51:10.053Z,2476.00
2018-03-30T08:52:09.975Z,3012.00
2018-03-30T08:53:09.894Z,3036.00
2018-03-30T08:54:09.814Z,3264.00
2018-03-30T08:55:09.733Z,3640.00
2018-03-30T08:56:09.653Z,4184.00
2018-03-30T08:57:09.574Z,4972.00
2018-03-30T08:58:09.500Z,5840.00
2018-03-30T08:59:09.432Z,5840.00
2018-03-30T09:00:09.331Z,5432.00
2018-03-30T09:01:09.252Z,4576.00
2018-03-30T09:02:09.214Z,4580.00
2018-03-30T09:03:09.093Z,5276.00
2018-03-30T09:04:09.012Z,4572.00
2018-03-30T09:05:08.931Z,4452.00
2018-03-30T09:06:08.851Z,4084.00
2018-03-30T09:07:08.779Z,3964.00
2018-03-30T09:08:08.695Z,3824.00
2018-03-30T09:09:08.614Z,3740.00
2018-03-30T09:10:08.534Z,3788.00
2018-03-30T09:11:08.464Z,3924.00
2018-03-30T09:12:08.379Z,4032.00
2018-03-30T09:13:08.296Z,4200.00
2018-03-30T09:14:08.216Z,4428.00
2018-03-30T09:15:08.139Z,4752.00
2018-03-30T09:16:08.056Z,5036.00
2018-03-30T09:17:07.978Z,5228.00
2018-03-30T09:18:07.923Z,5280.00
2018-03-30T09:19:07.818Z,5128.00
2018-03-30T09:20:07.747Z,4880.00
2018-03-30T09:21:07.659Z,4768.00
2018-03-30T09:22:07.585Z,4748.00
2018-03-30T09:23:07.501Z,4984.00
2018-03-30T09:24:07.426Z,5284.00
2018-03-30T09:25:07.342Z,5360.00
2018-03-30T09:26:07.279Z,5284.00
2018-03-30T09:27:07.212Z,5024.00
2018-03-30T09:28:07.110Z,4960.00
2018-03-30T09:29:07.026Z,4676.00
2018-03-30T09:30:06.950Z,4516.00
2018-03-30T09:31:06.868Z,4324.00
2018-03-30T09:32:06.793Z,4476.00
2018-03-30T09:33:06.712Z,4804.00
2018-03-30T09:34:06.637Z,5032.00
2018-03-30T09:35:06.551Z,5128.00
2018-03-30T09:36:06.481Z,5212.00
2018-03-30T09:37:06.398Z,5336.00
2018-03-30T09:38:06.333Z,5532.00
2018-03-30T09:39:06.238Z,5760.00
2018-03-30T09:40:06.171Z,6088.00
2018-03-30T09:41:06.087Z,6384.00
2018-03-30T09:42:06.017Z,6580.00
2018-03-30T09:43:05.924Z,6720.00
2018-03-30T09:44:05.847Z,6832.00
2018-03-30T09:45:05.770Z,6796.00
2018-03-30T09:46:05.690Z,6840.00
2018-03-30T09:47:05.610Z,6908.00
2018-03-30T09:48:05.552Z,7048.00
2018-03-30T09:49:05.455Z,7096.00
2018-03-30T09:50:05.377Z,7104.00
2018-03-30T09:51:05.297Z,7172.00
2018-03-30T09:52:05.224Z,7020.00
2018-03-30T09:53:05.140Z,7180.00
2018-03-30T09:54:05.065Z,7480.00
2018-03-30T09:55:04.986Z,7680.00
2018-03-30T09:56:04.925Z,7676.00
2018-03-30T09:57:04.831Z,7420.00
2018-03-30T09:58:04.755Z,7048.00
2018-03-30T09:59:04.688Z,6596.00
2018-03-30T10:00:04.619Z,6516.00
2018-03-30T10:01:04.544Z,6756.00
2018-03-30T10:02:04.447Z,6832.00
2018-03-30T10:03:04.363Z,7280.00
2018-03-30T10:04:04.290Z,6968.00
2018-03-30T10:05:04.216Z,6992.00
2018-03-30T10:06:04.226Z,6600.00
2018-03-30T10:07:04.054Z,7044.00
2018-03-30T10:08:03.980Z,6688.00
2018-03-30T10:09:03.898Z,5212.00
2018-03-30T10:10:03.821Z,6824.00
2018-03-30T10:11:03.754Z,6936.00
2018-03-30T10:12:03.668Z,6980.00
2018-03-30T10:13:03.590Z,6644.00
2018-03-30T10:14:03.517Z,6556.00
2018-03-30T10:15:03.438Z,6944.00
2018-03-30T10:16:03.420Z,7128.00
2018-03-30T10:17:03.308Z,7684.00
2018-03-30T10:18:03.225Z,7332.00
2018-03-30T10:19:03.134Z,6448.00
2018-03-30T10:20:03.049Z,6108.00
2018-03-30T10:21:02.969Z,5892.00
2018-03-30T10:22:02.900Z,5644.00
2018-03-30T10:23:02.832Z,6172.00
2018-03-30T10:24:02.738Z,6884.00
2018-03-30T10:25:02.664Z,7004.00
2018-03-30T10:26:02.584Z,6728.00
2018-03-30T10:27:02.507Z,6516.00
2018-03-30T10:28:02.430Z,6204.00
2018-03-30T10:29:02.352Z,6584.00
2018-03-30T10:30:02.273Z,6288.00
2018-03-30T10:31:02.203Z,6436.00
2018-03-30T10:32:02.121Z,6660.00
2018-03-30T10:33:02.044Z,7436.00
2018-03-30T10:34:01.995Z,7536.00
2018-03-30T10:35:01.893Z,8564.00
2018-03-30T10:36:01.827Z,8484.00
2018-03-30T10:37:01.734Z,8048.00
2018-03-30T10:38:01.664Z,8184.00
2018-03-30T10:39:01.587Z,9700.00
2018-03-30T10:40:01.504Z,10068.00
2018-03-30T10:41:01.449Z,9744.00
2018-03-30T10:42:01.357Z,10240.00
2018-03-30T10:43:01.274Z,10328.00
2018-03-30T10:44:01.199Z,10580.00
2018-03-30T10:45:01.145Z,10576.00
2018-03-30T10:46:01.064Z,9764.00
2018-03-30T10:47:00.979Z,10112.00
2018-03-30T10:48:00.892Z,10568.00
2018-03-30T10:49:00.816Z,10424.00
2018-03-30T10:50:00.749Z,10348.00
2018-03-30T10:51:00.690Z,9752.00
2018-03-30T10:52:00.588Z,9236.00
2018-03-30T10:53:00.513Z,9036.00
2018-03-30T10:54:00.435Z,8744.00
2018-03-30T10:55:00.358Z,8488.00
2018-03-30T10:56:00.286Z,8576.00
2018-03-30T10:57:00.215Z,8556.00
2018-03-30T10:58:00.134Z,8012.00
2018-03-30T10:59:00.059Z,7660.00
2018-03-30T10:59:59.981Z,7148.00
2018-03-30T11:00:59.929Z,6680.00
2018-03-30T11:01:59.835Z,6396.00
2018-03-30T11:02:59.758Z,6460.00
2018-03-30T11:03:59.677Z,6548.00
2018-03-30T11:04:59.607Z,6288.00
2018-03-30T11:05:59.552Z,5732.00
2018-03-30T11:06:59.471Z,5072.00
2018-03-30T11:07:59.390Z,4788.00
2018-03-30T11:08:59.300Z,4280.00
2018-03-30T11:09:59.227Z,4204.00
2018-03-30T11:10:59.170Z,4312.00
2018-03-30T11:11:59.071Z,4596.00
2018-03-30T11:12:59.001Z,4648.00
2018-03-30T11:13:58.920Z,4852.00
2018-03-30T11:14:58.846Z,4724.00
2018-03-30T11:15:58.790Z,4976.00
2018-03-30T11:16:58.688Z,5228.00
2018-03-30T11:17:58.627Z,6120.00
2018-03-30T11:18:58.538Z,6912.00
2018-03-30T11:19:58.480Z,7492.00
2018-03-30T11:20:58.386Z,7640.00
2018-03-30T11:21:58.313Z,6336.00
2018-03-30T11:22:58.242Z,6336.00
2018-03-30T11:23:58.163Z,6180.00
2018-03-30T11:24:58.085Z,6396.00
2018-03-30T11:25:58.005Z,6756.00
2018-03-30T11:26:57.929Z,6640.00
2018-03-30T11:27:57.850Z,6556.00
2018-03-30T11:28:57.783Z,6736.00
2018-03-30T11:29:57.698Z,6164.00
2018-03-30T11:30:57.622Z,5456.00
2018-03-30T11:31:57.551Z,5060.00
2018-03-30T11:32:57.470Z,5380.00
2018-03-30T11:33:57.395Z,6128.00
2018-03-30T11:34:57.319Z,7180.00
2018-03-30T11:35:57.247Z,7476.00
2018-03-30T11:36:57.164Z,7512.00
2018-03-30T11:37:57.093Z,6156.00
2018-03-30T11:38:57.014Z,5800.00
2018-03-30T11:39:56.943Z,5904.00
2018-03-30T11:40:56.860Z,6584.00
2018-03-30T11:41:56.786Z,8048.00
2018-03-30T11:42:56.710Z,11576.00
2018-03-30T11:43:56.637Z,10568.00
2018-03-30T11:44:56.572Z,11080.00
2018-03-30T11:45:56.480Z,14164.00
2018-03-30T11:46:56.407Z,17312.00
2018-03-30T11:47:56.343Z,20128.00
2018-03-30T11:48:56.255Z,15444.00
2018-03-30T11:49:56.177Z,8172.00
2018-03-30T11:50:56.101Z,7436.00
2018-03-30T11:51:56.029Z,8608.00
2018-03-30T11:52:55.976Z,8332.00
2018-03-30T11:53:55.875Z,6544.00
2018-03-30T11:54:55.802Z,6152.00
2018-03-30T11:55:55.756Z,6220.00
2018-03-30T11:56:55.653Z,6936.00
2018-03-30T11:57:55.596Z,8148.00
2018-03-30T11:58:55.505Z,9532.00
2018-03-30T11:59:55.443Z,9940.00
2018-03-30T12:00:55.350Z,8412.00
2018-03-30T12:01:55.291Z,7220.00
2018-03-30T12:02:55.216Z,8700.00
2018-03-30T12:03:55.130Z,6680.00
2018-03-30T12:04:55.049Z,6996.00
2018-03-30T12:05:54.971Z,11152.00
2018-03-30T12:06:54.901Z,8932.00
2018-03-30T12:07:54.833Z,11244.00
2018-03-30T12:08:54.752Z,11072.00
2018-03-30T12:09:54.679Z,13484.00
2018-03-30T12:10:54.598Z,20256.00
2018-03-30T12:11:54.547Z,11856.00
2018-03-30T12:12:54.447Z,13416.00
2018-03-30T12:13:54.383Z,20512.00
2018-03-30T12:14:54.295Z,13812.00
2018-03-30T12:15:54.252Z,13752.00
2018-03-30T12:16:54.150Z,9428.00
2018-03-30T12:17:54.071Z,8264.00
2018-03-30T12:18:54.016Z,10616.00
2018-03-30T12:19:53.921Z,14736.00
2018-03-30T12:20:53.850Z,18208.00
2018-03-30T12:21:53.774Z,9312.00
2018-03-30T12:22:53.700Z,9364.00
2018-03-30T12:23:53.626Z,10796.00
2018-03-30T12:24:53.554Z,11108.00
2018-03-30T12:25:53.477Z,12356.00
2018-03-30T12:26:53.406Z,18720.00
2018-03-30T12:27:53.368Z,21120.00
2018-03-30T12:28:53.267Z,34688.00
2018-03-30T12:29:53.183Z,33888.00
2018-03-30T12:30:53.117Z,33408.00
2018-03-30T12:31:53.029Z,32288.00
2018-03-30T12:32:52.959Z,17600.00